sensor_id;sensor_type;location;lat;lon;timestamp;P1;durP1;ratioP1;P2;durP2;ratioP2
75207;SDS011;63795;55.684;37.864;2023-04-24T00:04:22;31.15;;;12.48;;
75207;SDS011;63795;55.684;37.864;2023-04-24T00:09:26;23.92;;;7.28;;
75207;SDS011;63795;55.684;37.864;2023-04-24T00:14:26;23.95;;;11.43;;
75207;SDS011;63795;55.684;37.864;2023-04-24T00:19:27;18.77;;;6.07;;
75207;SDS011;63795;55.684;37.864;2023-04-24T00:24:28;22.85;;;7.72;;
75207;SDS011;63795;55.684;37.864;2023-04-24T00:29:29;27.42;;;10.90;;
75207;SDS011;63795;55.684;37.864;2023-04-24T00:34:29;24.90;;;8.60;;
75207;SDS011;63795;55.684;37.864;2023-04-24T00:39:32;31.65;;;8.93;;
75207;SDS011;63795;55.684;37.864;2023-04-24T00:44:33;20.23;;;7.82;;
75207;SDS011;63795;55.684;37.864;2023-04-24T00:49:34;22.70;;;8.07;;
75207;SDS011;63795;55.684;37.864;2023-04-24T00:54:35;25.92;;;9.18;;
75207;SDS011;63795;55.684;37.864;2023-04-24T00:59:35;30.15;;;8.82;;
75207;SDS011;63795;55.684;37.864;2023-04-24T01:04:37;22.98;;;6.80;;
75207;SDS011;63795;55.684;37.864;2023-04-24T01:09:38;19.38;;;8.63;;
75207;SDS011;63795;55.684;37.864;2023-04-24T01:14:41;20.63;;;7.85;;
75207;SDS011;63795;55.684;37.864;2023-04-24T01:19:42;23.45;;;8.48;;
75207;SDS011;63795;55.684;37.864;2023-04-24T01:24:46;23.60;;;7.38;;
75207;SDS011;63795;55.684;37.864;2023-04-24T01:29:46;23.42;;;8.00;;
75207;SDS011;63795;55.684;37.864;2023-04-24T01:34:51;24.65;;;8.75;;
75207;SDS011;63795;55.684;37.864;2023-04-24T01:39:52;19.90;;;7.93;;
75207;SDS011;63795;55.684;37.864;2023-04-24T01:44:53;20.70;;;7.57;;
75207;SDS011;63795;55.684;37.864;2023-04-24T01:49:54;20.70;;;7.45;;
75207;SDS011;63795;55.684;37.864;2023-04-24T01:54:55;23.27;;;8.35;;
75207;SDS011;63795;55.684;37.864;2023-04-24T01:59:55;24.05;;;7.90;;
75207;SDS011;63795;55.684;37.864;2023-04-24T02:04:56;19.65;;;8.35;;
75207;SDS011;63795;55.684;37.864;2023-04-24T02:09:57;26.52;;;7.80;;
75207;SDS011;63795;55.684;37.864;2023-04-24T02:14:58;33.67;;;10.35;;
75207;SDS011;63795;55.684;37.864;2023-04-24T02:19:58;29.25;;;11.55;;
75207;SDS011;63795;55.684;37.864;2023-04-24T02:24:59;33.57;;;11.60;;
75207;SDS011;63795;55.684;37.864;2023-04-24T02:30:00;29.45;;;12.73;;
75207;SDS011;63795;55.684;37.864;2023-04-24T02:35:00;37.33;;;13.02;;
75207;SDS011;63795;55.684;37.864;2023-04-24T02:40:01;36.72;;;12.18;;
75207;SDS011;63795;55.684;37.864;2023-04-24T02:45:02;38.85;;;13.55;;
75207;SDS011;63795;55.684;37.864;2023-04-24T02:50:02;45.83;;;15.73;;
75207;SDS011;63795;55.684;37.864;2023-04-24T02:55:03;42.13;;;16.15;;
75207;SDS011;63795;55.684;37.864;2023-04-24T03:00:04;38.65;;;13.40;;
75207;SDS011;63795;55.684;37.864;2023-04-24T03:10:07;27.90;;;12.50;;
75207;SDS011;63795;55.684;37.864;2023-04-24T03:15:08;22.27;;;13.73;;
75207;SDS011;63795;55.684;37.864;2023-04-24T03:20:09;30.00;;;10.07;;
75207;SDS011;63795;55.684;37.864;2023-04-24T03:25:10;28.85;;;9.23;;
75207;SDS011;63795;55.684;37.864;2023-04-24T03:30:10;28.23;;;10.38;;
75207;SDS011;63795;55.684;37.864;2023-04-24T03:35:11;31.85;;;10.48;;
75207;SDS011;63795;55.684;37.864;2023-04-24T03:40:11;27.92;;;10.73;;
75207;SDS011;63795;55.684;37.864;2023-04-24T03:45:12;22.05;;;11.25;;
75207;SDS011;63795;55.684;37.864;2023-04-24T03:50:12;24.77;;;9.60;;
75207;SDS011;63795;55.684;37.864;2023-04-24T03:55:13;26.30;;;11.05;;
75207;SDS011;63795;55.684;37.864;2023-04-24T04:00:13;30.38;;;13.73;;
75207;SDS011;63795;55.684;37.864;2023-04-24T04:05:14;27.55;;;9.23;;
75207;SDS011;63795;55.684;37.864;2023-04-24T04:10:15;21.45;;;10.18;;
75207;SDS011;63795;55.684;37.864;2023-04-24T04:15:17;20.50;;;9.80;;
75207;SDS011;63795;55.684;37.864;2023-04-24T04:20:17;20.13;;;10.30;;
75207;SDS011;63795;55.684;37.864;2023-04-24T04:25:18;25.23;;;10.75;;
75207;SDS011;63795;55.684;37.864;2023-04-24T04:30:19;24.35;;;10.18;;
75207;SDS011;63795;55.684;37.864;2023-04-24T04:35:20;28.35;;;10.52;;
75207;SDS011;63795;55.684;37.864;2023-04-24T04:40:21;32.03;;;11.18;;
75207;SDS011;63795;55.684;37.864;2023-04-24T04:45:21;23.05;;;10.35;;
75207;SDS011;63795;55.684;37.864;2023-04-24T04:50:24;25.63;;;9.10;;
75207;SDS011;63795;55.684;37.864;2023-04-24T04:55:25;26.45;;;8.65;;
75207;SDS011;63795;55.684;37.864;2023-04-24T05:00:26;15.70;;;7.70;;
75207;SDS011;63795;55.684;37.864;2023-04-24T05:05:27;18.60;;;8.85;;
75207;SDS011;63795;55.684;37.864;2023-04-24T05:10:27;12.88;;;7.82;;
75207;SDS011;63795;55.684;37.864;2023-04-24T05:15:28;22.97;;;10.17;;
75207;SDS011;63795;55.684;37.864;2023-04-24T05:20:28;21.67;;;7.40;;
75207;SDS011;63795;55.684;37.864;2023-04-24T05:25:29;14.35;;;7.22;;
75207;SDS011;63795;55.684;37.864;2023-04-24T05:30:30;18.48;;;8.20;;
75207;SDS011;63795;55.684;37.864;2023-04-24T05:35:31;16.45;;;8.43;;
75207;SDS011;63795;55.684;37.864;2023-04-24T05:40:31;23.63;;;9.35;;
75207;SDS011;63795;55.684;37.864;2023-04-24T05:45:31;17.73;;;7.60;;
75207;SDS011;63795;55.684;37.864;2023-04-24T05:50:32;18.50;;;5.80;;
75207;SDS011;63795;55.684;37.864;2023-04-24T05:55:32;20.73;;;6.45;;
75207;SDS011;63795;55.684;37.864;2023-04-24T06:00:33;17.38;;;6.93;;
75207;SDS011;63795;55.684;37.864;2023-04-24T06:05:34;21.33;;;7.10;;
75207;SDS011;63795;55.684;37.864;2023-04-24T06:10:35;16.50;;;7.65;;
75207;SDS011;63795;55.684;37.864;2023-04-24T06:15:35;27.33;;;7.20;;
75207;SDS011;63795;55.684;37.864;2023-04-24T06:20:36;20.33;;;6.25;;
75207;SDS011;63795;55.684;37.864;2023-04-24T06:25:37;12.23;;;5.50;;
75207;SDS011;63795;55.684;37.864;2023-04-24T06:30:38;12.30;;;6.65;;
75207;SDS011;63795;55.684;37.864;2023-04-24T06:35:38;16.55;;;5.80;;
75207;SDS011;63795;55.684;37.864;2023-04-24T06:40:39;10.48;;;4.53;;
75207;SDS011;63795;55.684;37.864;2023-04-24T06:45:40;11.90;;;5.93;;
75207;SDS011;63795;55.684;37.864;2023-04-24T06:50:40;13.27;;;5.70;;
75207;SDS011;63795;55.684;37.864;2023-04-24T06:55:41;9.97;;;4.50;;
75207;SDS011;63795;55.684;37.864;2023-04-24T07:00:43;15.00;;;7.10;;
75207;SDS011;63795;55.684;37.864;2023-04-24T07:05:43;10.70;;;4.57;;
75207;SDS011;63795;55.684;37.864;2023-04-24T07:10:44;6.95;;;4.22;;
75207;SDS011;63795;55.684;37.864;2023-04-24T07:15:45;10.80;;;5.30;;
75207;SDS011;63795;55.684;37.864;2023-04-24T07:20:45;13.38;;;5.30;;
75207;SDS011;63795;55.684;37.864;2023-04-24T07:25:46;9.43;;;3.17;;
75207;SDS011;63795;55.684;37.864;2023-04-24T07:30:46;8.43;;;4.68;;
75207;SDS011;63795;55.684;37.864;2023-04-24T07:35:47;6.95;;;2.95;;
75207;SDS011;63795;55.684;37.864;2023-04-24T07:40:48;7.05;;;3.30;;
75207;SDS011;63795;55.684;37.864;2023-04-24T07:45:52;7.25;;;2.35;;
75207;SDS011;63795;55.684;37.864;2023-04-24T07:50:53;4.43;;;1.77;;
75207;SDS011;63795;55.684;37.864;2023-04-24T07:55:54;6.82;;;1.50;;
75207;SDS011;63795;55.684;37.864;2023-04-24T08:00:55;9.50;;;2.85;;
75207;SDS011;63795;55.684;37.864;2023-04-24T08:05:56;5.80;;;1.75;;
75207;SDS011;63795;55.684;37.864;2023-04-24T08:10:56;5.03;;;1.65;;
75207;SDS011;63795;55.684;37.864;2023-04-24T08:15:57;8.80;;;2.85;;
75207;SDS011;63795;55.684;37.864;2023-04-24T08:20:57;13.60;;;5.13;;
75207;SDS011;63795;55.684;37.864;2023-04-24T08:26:01;13.98;;;3.38;;
75207;SDS011;63795;55.684;37.864;2023-04-24T08:31:01;8.48;;;4.03;;
75207;SDS011;63795;55.684;37.864;2023-04-24T08:36:03;7.75;;;3.45;;
75207;SDS011;63795;55.684;37.864;2023-04-24T08:41:05;7.75;;;5.40;;
75207;SDS011;63795;55.684;37.864;2023-04-24T08:46:05;6.75;;;2.53;;
75207;SDS011;63795;55.684;37.864;2023-04-24T08:51:06;16.73;;;5.63;;
75207;SDS011;63795;55.684;37.864;2023-04-24T08:56:08;7.25;;;3.05;;
75207;SDS011;63795;55.684;37.864;2023-04-24T09:01:09;7.40;;;3.20;;
75207;SDS011;63795;55.684;37.864;2023-04-24T09:06:10;8.52;;;2.58;;
75207;SDS011;63795;55.684;37.864;2023-04-24T09:11:11;14.50;;;5.07;;
75207;SDS011;63795;55.684;37.864;2023-04-24T09:16:12;7.93;;;2.70;;
75207;SDS011;63795;55.684;37.864;2023-04-24T09:21:14;7.32;;;4.38;;
75207;SDS011;63795;55.684;37.864;2023-04-24T09:26:15;21.02;;;11.75;;
75207;SDS011;63795;55.684;37.864;2023-04-24T09:31:16;9.82;;;3.15;;
75207;SDS011;63795;55.684;37.864;2023-04-24T09:36:18;11.20;;;2.65;;
75207;SDS011;63795;55.684;37.864;2023-04-24T09:41:19;8.60;;;3.55;;
75207;SDS011;63795;55.684;37.864;2023-04-24T09:46:19;7.10;;;2.08;;
75207;SDS011;63795;55.684;37.864;2023-04-24T09:51:34;8.02;;;2.65;;
75207;SDS011;63795;55.684;37.864;2023-04-24T09:56:39;6.80;;;3.22;;
75207;SDS011;63795;55.684;37.864;2023-04-24T10:01:42;6.22;;;2.20;;
75207;SDS011;63795;55.684;37.864;2023-04-24T10:06:44;7.10;;;2.90;;
75207;SDS011;63795;55.684;37.864;2023-04-24T10:11:47;7.32;;;2.92;;
75207;SDS011;63795;55.684;37.864;2023-04-24T10:16:49;6.03;;;2.20;;
75207;SDS011;63795;55.684;37.864;2023-04-24T10:21:52;7.47;;;2.75;;
75207;SDS011;63795;55.684;37.864;2023-04-24T10:26:55;4.70;;;2.60;;
75207;SDS011;63795;55.684;37.864;2023-04-24T10:31:57;5.38;;;4.20;;
75207;SDS011;63795;55.684;37.864;2023-04-24T10:36:57;5.40;;;2.33;;
75207;SDS011;63795;55.684;37.864;2023-04-24T10:41:58;6.43;;;2.78;;
75207;SDS011;63795;55.684;37.864;2023-04-24T10:46:58;5.65;;;1.75;;
75207;SDS011;63795;55.684;37.864;2023-04-24T10:52:00;10.73;;;6.43;;
75207;SDS011;63795;55.684;37.864;2023-04-24T11:02:35;6.60;;;3.00;;
75207;SDS011;63795;55.684;37.864;2023-04-24T11:13:16;3.70;;;2.08;;
75207;SDS011;63795;55.684;37.864;2023-04-24T11:18:21;5.97;;;3.33;;
75207;SDS011;63795;55.684;37.864;2023-04-24T11:23:23;6.85;;;2.25;;
75207;SDS011;63795;55.684;37.864;2023-04-24T11:28:23;4.72;;;3.42;;
75207;SDS011;63795;55.684;37.864;2023-04-24T11:33:24;3.65;;;2.50;;
75207;SDS011;63795;55.684;37.864;2023-04-24T11:38:25;3.97;;;2.80;;
75207;SDS011;63795;55.684;37.864;2023-04-24T11:43:28;5.07;;;2.67;;
75207;SDS011;63795;55.684;37.864;2023-04-24T11:48:33;18.88;;;14.45;;
75207;SDS011;63795;55.684;37.864;2023-04-24T11:53:36;7.18;;;2.35;;
75207;SDS011;63795;55.684;37.864;2023-04-24T11:58:37;9.63;;;2.95;;
75207;SDS011;63795;55.684;37.864;2023-04-24T12:03:39;4.35;;;1.65;;
75207;SDS011;63795;55.684;37.864;2023-04-24T12:08:45;4.55;;;2.65;;
75207;SDS011;63795;55.684;37.864;2023-04-24T12:13:46;7.55;;;2.00;;
75207;SDS011;63795;55.684;37.864;2023-04-24T12:18:46;6.22;;;1.98;;
75207;SDS011;63795;55.684;37.864;2023-04-24T12:23:47;7.35;;;1.83;;
75207;SDS011;63795;55.684;37.864;2023-04-24T12:28:49;4.22;;;2.08;;
75207;SDS011;63795;55.684;37.864;2023-04-24T12:38:52;12.00;;;2.33;;
75207;SDS011;63795;55.684;37.864;2023-04-24T12:43:53;5.35;;;2.17;;
75207;SDS011;63795;55.684;37.864;2023-04-24T12:48:55;6.28;;;2.78;;
75207;SDS011;63795;55.684;37.864;2023-04-24T12:53:55;8.18;;;1.90;;
75207;SDS011;63795;55.684;37.864;2023-04-24T12:58:56;5.80;;;2.03;;
75207;SDS011;63795;55.684;37.864;2023-04-24T13:03:57;6.93;;;3.13;;
75207;SDS011;63795;55.684;37.864;2023-04-24T13:08:57;13.45;;;1.67;;
75207;SDS011;63795;55.684;37.864;2023-04-24T13:13:58;4.75;;;1.17;;
75207;SDS011;63795;55.684;37.864;2023-04-24T13:18:58;4.95;;;1.13;;
75207;SDS011;63795;55.684;37.864;2023-04-24T13:23:59;6.75;;;2.13;;
75207;SDS011;63795;55.684;37.864;2023-04-24T13:28:59;6.90;;;1.90;;
75207;SDS011;63795;55.684;37.864;2023-04-24T13:34:00;9.18;;;1.25;;
75207;SDS011;63795;55.684;37.864;2023-04-24T13:39:02;2.58;;;1.27;;
75207;SDS011;63795;55.684;37.864;2023-04-24T13:44:05;9.35;;;1.92;;
75207;SDS011;63795;55.684;37.864;2023-04-24T13:49:06;3.35;;;2.58;;
75207;SDS011;63795;55.684;37.864;2023-04-24T13:54:06;8.52;;;1.25;;
75207;SDS011;63795;55.684;37.864;2023-04-24T13:59:07;5.55;;;1.92;;
75207;SDS011;63795;55.684;37.864;2023-04-24T14:04:08;8.07;;;1.52;;
75207;SDS011;63795;55.684;37.864;2023-04-24T14:09:09;8.05;;;2.83;;
75207;SDS011;63795;55.684;37.864;2023-04-24T14:14:09;6.93;;;3.30;;
75207;SDS011;63795;55.684;37.864;2023-04-24T14:19:10;6.55;;;1.80;;
75207;SDS011;63795;55.684;37.864;2023-04-24T14:24:11;4.13;;;1.87;;
75207;SDS011;63795;55.684;37.864;2023-04-24T14:29:11;4.28;;;2.22;;
75207;SDS011;63795;55.684;37.864;2023-04-24T14:34:12;4.78;;;1.08;;
75207;SDS011;63795;55.684;37.864;2023-04-24T14:39:14;6.30;;;2.10;;
75207;SDS011;63795;55.684;37.864;2023-04-24T14:44:14;10.70;;;1.35;;
75207;SDS011;63795;55.684;37.864;2023-04-24T14:49:15;5.72;;;3.17;;
75207;SDS011;63795;55.684;37.864;2023-04-24T14:54:15;5.80;;;1.30;;
75207;SDS011;63795;55.684;37.864;2023-04-24T14:59:16;9.60;;;3.60;;
75207;SDS011;63795;55.684;37.864;2023-04-24T15:04:16;13.50;;;2.27;;
75207;SDS011;63795;55.684;37.864;2023-04-24T15:09:17;6.03;;;1.63;;
75207;SDS011;63795;55.684;37.864;2023-04-24T15:14:17;8.98;;;1.80;;
75207;SDS011;63795;55.684;37.864;2023-04-24T15:19:18;3.97;;;0.77;;
75207;SDS011;63795;55.684;37.864;2023-04-24T15:24:19;5.15;;;0.93;;
75207;SDS011;63795;55.684;37.864;2023-04-24T15:29:19;5.97;;;1.60;;
75207;SDS011;63795;55.684;37.864;2023-04-24T15:34:20;4.53;;;1.97;;
75207;SDS011;63795;55.684;37.864;2023-04-24T15:39:22;10.77;;;2.95;;
75207;SDS011;63795;55.684;37.864;2023-04-24T15:44:24;8.15;;;2.92;;
75207;SDS011;63795;55.684;37.864;2023-04-24T15:49:24;5.13;;;2.22;;
75207;SDS011;63795;55.684;37.864;2023-04-24T15:54:25;5.38;;;2.15;;
75207;SDS011;63795;55.684;37.864;2023-04-24T15:59:25;2.67;;;1.42;;
75207;SDS011;63795;55.684;37.864;2023-04-24T16:04:27;13.70;;;1.92;;
75207;SDS011;63795;55.684;37.864;2023-04-24T16:09:28;7.20;;;2.33;;
75207;SDS011;63795;55.684;37.864;2023-04-24T16:14:28;10.73;;;2.13;;
75207;SDS011;63795;55.684;37.864;2023-04-24T16:19:29;15.35;;;9.85;;
75207;SDS011;63795;55.684;37.864;2023-04-24T16:24:30;8.80;;;2.00;;
75207;SDS011;63795;55.684;37.864;2023-04-24T16:29:31;5.90;;;1.80;;
75207;SDS011;63795;55.684;37.864;2023-04-24T16:34:33;4.97;;;1.83;;
75207;SDS011;63795;55.684;37.864;2023-04-24T16:39:33;12.27;;;4.00;;
75207;SDS011;63795;55.684;37.864;2023-04-24T16:44:34;13.80;;;4.25;;
75207;SDS011;63795;55.684;37.864;2023-04-24T16:49:35;5.40;;;2.10;;
75207;SDS011;63795;55.684;37.864;2023-04-24T16:54:35;12.70;;;6.03;;
75207;SDS011;63795;55.684;37.864;2023-04-24T16:59:36;9.82;;;1.45;;
75207;SDS011;63795;55.684;37.864;2023-04-24T17:04:37;5.85;;;1.60;;
75207;SDS011;63795;55.684;37.864;2023-04-24T17:09:38;9.80;;;2.63;;
75207;SDS011;63795;55.684;37.864;2023-04-24T17:14:38;10.25;;;3.42;;
75207;SDS011;63795;55.684;37.864;2023-04-24T17:19:39;5.20;;;1.83;;
75207;SDS011;63795;55.684;37.864;2023-04-24T17:24:39;8.75;;;1.88;;
75207;SDS011;63795;55.684;37.864;2023-04-24T17:29:40;8.32;;;1.92;;
75207;SDS011;63795;55.684;37.864;2023-04-24T17:34:41;6.18;;;2.50;;
75207;SDS011;63795;55.684;37.864;2023-04-24T17:39:41;5.70;;;1.63;;
75207;SDS011;63795;55.684;37.864;2023-04-24T17:44:42;6.60;;;1.85;;
75207;SDS011;63795;55.684;37.864;2023-04-24T17:49:42;12.73;;;4.00;;
75207;SDS011;63795;55.684;37.864;2023-04-24T17:54:43;8.30;;;1.98;;
75207;SDS011;63795;55.684;37.864;2023-04-24T17:59:43;9.05;;;1.23;;
75207;SDS011;63795;55.684;37.864;2023-04-24T18:04:44;7.60;;;2.60;;
75207;SDS011;63795;55.684;37.864;2023-04-24T18:09:44;7.05;;;2.00;;
75207;SDS011;63795;55.684;37.864;2023-04-24T18:14:45;9.45;;;2.85;;
75207;SDS011;63795;55.684;37.864;2023-04-24T18:19:46;9.20;;;2.75;;
75207;SDS011;63795;55.684;37.864;2023-04-24T18:24:46;5.77;;;2.23;;
75207;SDS011;63795;55.684;37.864;2023-04-24T18:29:47;8.90;;;5.13;;
75207;SDS011;63795;55.684;37.864;2023-04-24T18:34:47;16.60;;;6.38;;
75207;SDS011;63795;55.684;37.864;2023-04-24T18:39:48;13.38;;;2.28;;
75207;SDS011;63795;55.684;37.864;2023-04-24T18:44:49;10.25;;;2.35;;
75207;SDS011;63795;55.684;37.864;2023-04-24T18:49:50;6.53;;;2.45;;
75207;SDS011;63795;55.684;37.864;2023-04-24T18:54:51;9.83;;;4.37;;
75207;SDS011;63795;55.684;37.864;2023-04-24T18:59:51;9.07;;;1.92;;
75207;SDS011;63795;55.684;37.864;2023-04-24T19:04:52;13.93;;;3.50;;
75207;SDS011;63795;55.684;37.864;2023-04-24T19:09:52;13.63;;;4.60;;
75207;SDS011;63795;55.684;37.864;2023-04-24T19:14:54;12.43;;;4.55;;
75207;SDS011;63795;55.684;37.864;2023-04-24T19:19:57;18.63;;;4.32;;
75207;SDS011;63795;55.684;37.864;2023-04-24T19:24:58;14.98;;;3.90;;
75207;SDS011;63795;55.684;37.864;2023-04-24T19:29:58;7.15;;;2.75;;
75207;SDS011;63795;55.684;37.864;2023-04-24T19:34:59;15.77;;;5.13;;
75207;SDS011;63795;55.684;37.864;2023-04-24T19:40:00;10.57;;;4.53;;
75207;SDS011;63795;55.684;37.864;2023-04-24T19:45:01;15.00;;;4.25;;
75207;SDS011;63795;55.684;37.864;2023-04-24T19:50:01;21.63;;;5.27;;
75207;SDS011;63795;55.684;37.864;2023-04-24T19:55:02;12.00;;;3.13;;
75207;SDS011;63795;55.684;37.864;2023-04-24T20:00:03;17.35;;;4.32;;
75207;SDS011;63795;55.684;37.864;2023-04-24T20:05:04;12.98;;;3.55;;
75207;SDS011;63795;55.684;37.864;2023-04-24T20:10:05;12.82;;;3.47;;
75207;SDS011;63795;55.684;37.864;2023-04-24T20:15:06;12.30;;;3.78;;
75207;SDS011;63795;55.684;37.864;2023-04-24T20:20:07;12.70;;;3.78;;
75207;SDS011;63795;55.684;37.864;2023-04-24T20:25:08;12.65;;;3.83;;
75207;SDS011;63795;55.684;37.864;2023-04-24T20:30:12;9.70;;;2.35;;
75207;SDS011;63795;55.684;37.864;2023-04-24T20:35:12;119.15;;;60.45;;
75207;SDS011;63795;55.684;37.864;2023-04-24T20:40:13;66.03;;;31.92;;
75207;SDS011;63795;55.684;37.864;2023-04-24T20:45:13;13.10;;;3.38;;
75207;SDS011;63795;55.684;37.864;2023-04-24T20:50:14;13.10;;;5.32;;
75207;SDS011;63795;55.684;37.864;2023-04-24T20:55:15;9.00;;;3.58;;
75207;SDS011;63795;55.684;37.864;2023-04-24T21:00:16;15.80;;;3.53;;
75207;SDS011;63795;55.684;37.864;2023-04-24T21:05:17;10.80;;;5.53;;
75207;SDS011;63795;55.684;37.864;2023-04-24T21:10:17;16.30;;;4.95;;
75207;SDS011;63795;55.684;37.864;2023-04-24T21:15:18;11.90;;;3.63;;
75207;SDS011;63795;55.684;37.864;2023-04-24T21:20:19;10.02;;;3.30;;
75207;SDS011;63795;55.684;37.864;2023-04-24T21:25:20;9.70;;;3.72;;
75207;SDS011;63795;55.684;37.864;2023-04-24T21:30:20;13.03;;;3.93;;
75207;SDS011;63795;55.684;37.864;2023-04-24T21:35:21;22.58;;;4.72;;
75207;SDS011;63795;55.684;37.864;2023-04-24T21:40:21;7.43;;;2.83;;
75207;SDS011;63795;55.684;37.864;2023-04-24T21:45:22;10.30;;;3.83;;
75207;SDS011;63795;55.684;37.864;2023-04-24T21:50:22;13.50;;;5.10;;
75207;SDS011;63795;55.684;37.864;2023-04-24T21:55:23;13.03;;;5.13;;
75207;SDS011;63795;55.684;37.864;2023-04-24T22:00:24;14.07;;;4.70;;
75207;SDS011;63795;55.684;37.864;2023-04-24T22:05:24;10.05;;;6.45;;
75207;SDS011;63795;55.684;37.864;2023-04-24T22:10:25;13.02;;;3.47;;
75207;SDS011;63795;55.684;37.864;2023-04-24T22:15:26;8.90;;;3.65;;
75207;SDS011;63795;55.684;37.864;2023-04-24T22:20:26;7.15;;;2.40;;
75207;SDS011;63795;55.684;37.864;2023-04-24T22:25:29;8.20;;;3.03;;
75207;SDS011;63795;55.684;37.864;2023-04-24T22:30:29;12.85;;;6.03;;
75207;SDS011;63795;55.684;37.864;2023-04-24T22:35:30;9.15;;;5.13;;
75207;SDS011;63795;55.684;37.864;2023-04-24T22:40:30;7.00;;;3.05;;
75207;SDS011;63795;55.684;37.864;2023-04-24T22:45:31;11.48;;;3.25;;
75207;SDS011;63795;55.684;37.864;2023-04-24T22:50:32;13.82;;;4.35;;
75207;SDS011;63795;55.684;37.864;2023-04-24T22:55:32;14.67;;;3.87;;
75207;SDS011;63795;55.684;37.864;2023-04-24T23:00:34;9.25;;;3.10;;
75207;SDS011;63795;55.684;37.864;2023-04-24T23:05:34;15.15;;;3.67;;
75207;SDS011;63795;55.684;37.864;2023-04-24T23:10:35;10.00;;;3.28;;
75207;SDS011;63795;55.684;37.864;2023-04-24T23:15:36;15.35;;;6.22;;
75207;SDS011;63795;55.684;37.864;2023-04-24T23:25:38;16.67;;;6.00;;
75207;SDS011;63795;55.684;37.864;2023-04-24T23:30:39;15.48;;;5.55;;
75207;SDS011;63795;55.684;37.864;2023-04-24T23:35:39;12.80;;;8.43;;
75207;SDS011;63795;55.684;37.864;2023-04-24T23:40:40;15.23;;;5.80;;
75207;SDS011;63795;55.684;37.864;2023-04-24T23:45:40;16.33;;;5.72;;
75207;SDS011;63795;55.684;37.864;2023-04-24T23:50:41;24.10;;;6.45;;
75207;SDS011;63795;55.684;37.864;2023-04-24T23:55:42;12.00;;;6.05;;
